createdAt,value
2022-08-24T00:00:16.947Z,990.93
2022-08-24T00:01:16.943Z,990.89
2022-08-24T00:02:16.997Z,990.89
2022-08-24T00:03:17.074Z,990.95
2022-08-24T00:04:17.402Z,990.89
2022-08-24T00:05:16.902Z,990.92
2022-08-24T00:06:16.897Z,990.89
2022-08-24T00:07:27.316Z,990.89
2022-08-24T00:08:17.888Z,990.91
2022-08-24T00:09:16.866Z,990.94
2022-08-24T00:10:16.858Z,990.92
2022-08-24T00:11:16.843Z,990.93
2022-08-24T00:12:16.833Z,990.98
2022-08-24T00:13:16.845Z,990.96
2022-08-24T00:14:16.811Z,990.92
2022-08-24T00:15:16.804Z,990.94
2022-08-24T00:16:16.858Z,990.91
2022-08-24T00:17:16.778Z,990.92
2022-08-24T00:18:16.785Z,990.96
2022-08-24T00:19:16.763Z,990.99
2022-08-24T00:20:16.752Z,991.00
2022-08-24T00:21:16.745Z,990.99
2022-08-24T00:22:16.733Z,991.03
2022-08-24T00:23:16.744Z,991.04
2022-08-24T00:24:16.713Z,991.02
2022-08-24T00:25:16.706Z,991.04
2022-08-24T00:26:16.687Z,991.00
2022-08-24T00:27:16.682Z,990.98
2022-08-24T00:28:16.691Z,991.04
2022-08-24T00:29:16.661Z,991.05
2022-08-24T00:30:16.651Z,991.00
2022-08-24T00:31:16.690Z,990.92
2022-08-24T00:32:16.641Z,990.99
2022-08-24T00:33:16.645Z,990.99
2022-08-24T00:34:16.609Z,990.96
2022-08-24T00:35:16.702Z,991.02
2022-08-24T00:36:16.599Z,991.00
2022-08-24T00:37:16.591Z,990.99
2022-08-24T00:38:16.585Z,990.94
2022-08-24T00:39:16.570Z,990.94
2022-08-24T00:40:16.584Z,990.98
2022-08-24T00:41:16.557Z,990.99
2022-08-24T00:42:16.535Z,991.00
2022-08-24T00:43:16.596Z,990.97
2022-08-24T00:44:16.520Z,990.96
2022-08-24T00:45:16.512Z,990.95
2022-08-24T00:46:16.514Z,990.97
2022-08-24T00:47:16.491Z,990.98
2022-08-24T00:48:16.474Z,990.96
2022-08-24T00:49:16.543Z,990.97
2022-08-24T00:50:16.451Z,991.00
2022-08-24T00:51:16.448Z,990.94
2022-08-24T00:52:16.478Z,990.94
2022-08-24T00:53:16.436Z,990.99
2022-08-24T00:54:16.440Z,990.96
2022-08-24T00:55:16.428Z,990.98
2022-08-24T00:56:16.400Z,990.97
2022-08-24T00:57:16.397Z,990.94
2022-08-24T00:58:17.678Z,991.01
2022-08-24T00:59:16.394Z,990.97
2022-08-24T01:00:16.361Z,990.99
2022-08-24T01:01:16.395Z,991.02
2022-08-24T01:02:16.407Z,990.99
2022-08-24T01:03:16.352Z,990.94
2022-08-24T01:04:16.324Z,991.02
2022-08-24T01:05:16.326Z,991.02
2022-08-24T01:06:16.306Z,990.99
2022-08-24T01:07:16.293Z,991.02
2022-08-24T01:08:16.303Z,991.03
2022-08-24T01:09:16.276Z,991.05
2022-08-24T01:10:16.280Z,991.03
2022-08-24T01:11:16.259Z,991.04
2022-08-24T01:12:16.255Z,991.09
2022-08-24T01:13:16.258Z,991.06
2022-08-24T01:14:16.224Z,991.04
2022-08-24T01:15:16.219Z,991.14
2022-08-24T01:16:16.252Z,991.07
2022-08-24T01:17:16.194Z,991.09
2022-08-24T01:18:16.498Z,991.10
2022-08-24T01:19:16.180Z,991.11
2022-08-24T01:20:16.166Z,991.13
2022-08-24T01:21:16.161Z,991.10
2022-08-24T01:22:16.146Z,991.14
2022-08-24T01:23:16.146Z,991.11
2022-08-24T01:24:16.326Z,991.12
2022-08-24T01:25:16.120Z,991.12
2022-08-24T01:26:16.534Z,991.10
2022-08-24T01:27:16.162Z,991.11
2022-08-24T01:28:16.089Z,991.09
2022-08-24T01:29:16.134Z,991.20
2022-08-24T01:30:16.067Z,991.06
2022-08-24T01:31:16.117Z,991.07
2022-08-24T01:32:16.063Z,991.08
2022-08-24T01:33:16.043Z,991.12
2022-08-24T01:34:16.098Z,991.08
2022-08-24T01:35:16.048Z,991.12
2022-08-24T01:36:16.010Z,991.17
2022-08-24T01:37:16.043Z,991.15
2022-08-24T01:38:16.025Z,991.10
2022-08-24T01:39:15.979Z,991.12
2022-08-24T01:40:16.055Z,991.13
2022-08-24T01:41:16.018Z,991.10
2022-08-24T01:42:15.953Z,991.14
2022-08-24T01:43:15.980Z,991.08
2022-08-24T01:44:15.936Z,991.09
2022-08-24T01:45:15.930Z,991.16
2022-08-24T01:46:16.023Z,991.09
2022-08-24T01:47:15.907Z,991.14
2022-08-24T01:48:22.816Z,991.08
2022-08-24T01:49:16.993Z,991.12
2022-08-24T01:50:15.871Z,991.08
2022-08-24T01:51:15.863Z,991.13
2022-08-24T01:52:15.853Z,991.08
2022-08-24T01:53:16.022Z,991.10
2022-08-24T01:54:15.845Z,991.12
2022-08-24T01:55:15.828Z,991.13
2022-08-24T01:56:16.829Z,991.12
2022-08-24T01:57:16.984Z,991.16
2022-08-24T01:58:15.796Z,991.17
2022-08-24T01:59:15.806Z,991.13
2022-08-24T02:00:15.777Z,991.12
2022-08-24T02:01:15.768Z,991.14
2022-08-24T02:02:15.799Z,991.15
2022-08-24T02:03:15.773Z,991.15
2022-08-24T02:04:17.782Z,991.15
2022-08-24T02:05:15.734Z,991.11
2022-08-24T02:06:15.723Z,991.13
2022-08-24T02:07:15.716Z,991.19
2022-08-24T02:08:15.704Z,991.14
2022-08-24T02:09:15.715Z,991.23
2022-08-24T02:10:15.687Z,991.26
2022-08-24T02:11:15.681Z,991.23
2022-08-24T02:12:15.669Z,991.20
2022-08-24T02:13:15.656Z,991.30
2022-08-24T02:14:15.665Z,991.23
2022-08-24T02:15:15.639Z,991.22
2022-08-24T02:16:15.670Z,991.27
2022-08-24T02:17:15.618Z,991.32
2022-08-24T02:18:15.747Z,991.32
2022-08-24T02:19:15.623Z,991.25
2022-08-24T02:20:15.587Z,991.29
2022-08-24T02:21:15.581Z,991.29
2022-08-24T02:22:15.569Z,991.30
2022-08-24T02:23:15.567Z,991.28
2022-08-24T02:24:15.564Z,991.30
2022-08-24T02:25:15.543Z,991.27
2022-08-24T02:26:15.535Z,991.33
2022-08-24T02:27:15.523Z,991.27
2022-08-24T02:28:15.513Z,991.29
2022-08-24T02:29:15.524Z,991.31
2022-08-24T02:30:15.495Z,991.31
2022-08-24T02:31:15.570Z,991.32
2022-08-24T02:32:15.475Z,991.30
2022-08-24T02:33:15.464Z,991.34
2022-08-24T02:34:15.474Z,991.37
2022-08-24T02:35:15.463Z,991.33
2022-08-24T02:36:25.418Z,991.35
2022-08-24T02:37:16.434Z,991.34
2022-08-24T02:38:15.420Z,991.34
2022-08-24T02:39:15.424Z,991.28
2022-08-24T02:40:15.414Z,991.28
2022-08-24T02:41:15.388Z,991.33
2022-08-24T02:42:15.389Z,991.30
2022-08-24T02:43:15.373Z,991.35
2022-08-24T02:44:15.380Z,991.32
2022-08-24T02:45:15.440Z,991.32
2022-08-24T02:46:15.367Z,991.32
2022-08-24T02:47:15.334Z,991.32
2022-08-24T02:48:15.484Z,991.28
2022-08-24T02:49:15.315Z,991.29
2022-08-24T02:50:15.309Z,991.28
2022-08-24T02:51:15.292Z,991.29
2022-08-24T02:52:15.282Z,991.25
2022-08-24T02:53:15.276Z,991.24
2022-08-24T02:54:15.274Z,991.26
2022-08-24T02:55:15.253Z,991.23
2022-08-24T02:56:15.251Z,991.20
2022-08-24T02:57:15.257Z,991.23
2022-08-24T02:58:15.243Z,991.29
2022-08-24T02:59:15.220Z,991.26
2022-08-24T03:00:15.219Z,991.34
2022-08-24T03:01:17.607Z,991.33
2022-08-24T03:02:15.220Z,991.32
2022-08-24T03:03:15.478Z,991.30
2022-08-24T03:04:15.175Z,991.32
2022-08-24T03:05:15.157Z,991.34
2022-08-24T03:06:15.155Z,991.36
2022-08-24T03:07:15.137Z,991.37
2022-08-24T03:08:15.149Z,991.36
2022-08-24T03:09:15.125Z,991.30
2022-08-24T03:10:15.118Z,991.39
2022-08-24T03:11:15.105Z,991.30
2022-08-24T03:12:15.091Z,991.34
2022-08-24T03:13:15.095Z,991.41
2022-08-24T03:14:15.078Z,991.30
2022-08-24T03:15:15.060Z,991.31
2022-08-24T03:16:15.157Z,991.31
2022-08-24T03:17:15.049Z,991.31
2022-08-24T03:18:15.065Z,991.34
2022-08-24T03:19:15.066Z,991.32
2022-08-24T03:20:15.022Z,991.26
2022-08-24T03:21:15.010Z,991.34
2022-08-24T03:22:15.004Z,991.31
2022-08-24T03:23:15.003Z,991.26
2022-08-24T03:24:14.983Z,991.30
2022-08-24T03:25:14.968Z,991.23
2022-08-24T03:26:14.965Z,991.25
2022-08-24T03:27:14.993Z,991.27
2022-08-24T03:28:14.961Z,991.25
2022-08-24T03:29:15.819Z,991.27
2022-08-24T03:30:14.922Z,991.26
2022-08-24T03:31:14.946Z,991.20
2022-08-24T03:32:14.904Z,991.22
2022-08-24T03:33:14.900Z,991.25
2022-08-24T03:34:14.879Z,991.20
2022-08-24T03:35:14.868Z,991.16
2022-08-24T03:36:14.862Z,991.16
2022-08-24T03:37:14.861Z,991.14
2022-08-24T03:38:14.864Z,991.22
2022-08-24T03:39:14.834Z,991.16
2022-08-24T03:40:22.520Z,991.14
2022-08-24T03:41:15.813Z,991.19
2022-08-24T03:42:14.805Z,991.24
2022-08-24T03:43:14.792Z,991.15
2022-08-24T03:44:14.797Z,991.19
2022-08-24T03:45:14.769Z,991.14
2022-08-24T03:46:14.797Z,991.22
2022-08-24T03:47:14.750Z,991.20
2022-08-24T03:48:14.746Z,991.21
2022-08-24T03:49:14.805Z,991.17
2022-08-24T03:50:14.723Z,991.20
2022-08-24T03:51:14.710Z,991.22
2022-08-24T03:52:14.772Z,991.23
2022-08-24T03:53:14.688Z,991.20
2022-08-24T03:54:14.697Z,991.19
2022-08-24T03:55:14.692Z,991.16
2022-08-24T03:56:14.662Z,991.20
2022-08-24T03:57:14.652Z,991.21
2022-08-24T03:58:14.646Z,991.23
2022-08-24T03:59:17.692Z,991.24
2022-08-24T04:00:14.624Z,991.21
2022-08-24T04:01:14.631Z,991.24
2022-08-24T04:02:14.816Z,991.22
2022-08-24T04:03:14.588Z,991.23
2022-08-24T04:04:14.614Z,991.25
2022-08-24T04:05:14.566Z,991.25
2022-08-24T04:06:14.565Z,991.24
2022-08-24T04:07:14.554Z,991.26
2022-08-24T04:08:14.544Z,991.32
2022-08-24T04:09:14.551Z,991.30
2022-08-24T04:10:14.569Z,991.27
2022-08-24T04:11:14.512Z,991.25
2022-08-24T04:12:14.506Z,991.34
2022-08-24T04:13:14.520Z,991.37
2022-08-24T04:14:27.767Z,991.36
2022-08-24T04:15:15.474Z,991.38
2022-08-24T04:16:14.518Z,991.38
2022-08-24T04:17:14.450Z,991.38
2022-08-24T04:18:14.472Z,991.43
2022-08-24T04:19:14.489Z,991.40
2022-08-24T04:20:14.440Z,991.40
2022-08-24T04:21:14.417Z,991.39
2022-08-24T04:22:14.423Z,991.40
2022-08-24T04:23:14.411Z,991.37
2022-08-24T04:24:14.389Z,991.40
2022-08-24T04:25:14.374Z,991.38
2022-08-24T04:26:14.444Z,991.38
2022-08-24T04:27:14.358Z,991.28
2022-08-24T04:28:14.366Z,991.36
2022-08-24T04:29:14.340Z,991.37
2022-08-24T04:30:14.591Z,991.40
2022-08-24T04:31:14.376Z,991.38
2022-08-24T04:32:14.322Z,991.32
2022-08-24T04:33:14.319Z,991.38
2022-08-24T04:34:14.300Z,991.38
2022-08-24T04:35:14.296Z,991.34
2022-08-24T04:36:14.275Z,991.35
2022-08-24T04:37:14.271Z,991.40
2022-08-24T04:38:14.270Z,991.38
2022-08-24T04:39:14.248Z,991.45
2022-08-24T04:40:14.300Z,991.42
2022-08-24T04:41:14.228Z,991.44
2022-08-24T04:42:14.223Z,991.42
2022-08-24T04:43:19.113Z,991.37
2022-08-24T04:44:15.215Z,991.47
2022-08-24T04:45:14.188Z,991.48
2022-08-24T04:46:14.251Z,991.43
2022-08-24T04:47:14.166Z,991.38
2022-08-24T04:48:14.180Z,991.43
2022-08-24T04:49:14.145Z,991.41
2022-08-24T04:50:14.146Z,991.42
2022-08-24T04:51:14.151Z,991.44
2022-08-24T04:52:14.126Z,991.45
2022-08-24T04:53:14.103Z,991.44
2022-08-24T04:54:14.118Z,991.44
2022-08-24T04:55:14.091Z,991.45
2022-08-24T04:56:14.101Z,991.49
2022-08-24T04:57:17.911Z,991.48
2022-08-24T04:58:14.307Z,991.51
2022-08-24T04:59:14.081Z,991.52
2022-08-24T05:00:14.045Z,991.49
2022-08-24T05:01:14.076Z,991.49
2022-08-24T05:02:14.080Z,991.55
2022-08-24T05:03:14.002Z,991.55
2022-08-24T05:04:14.016Z,991.52
2022-08-24T05:05:14.009Z,991.57
2022-08-24T05:06:13.986Z,991.56
2022-08-24T05:07:13.983Z,991.53
2022-08-24T05:08:13.965Z,991.58
2022-08-24T05:09:13.963Z,991.56
2022-08-24T05:10:13.944Z,991.56
2022-08-24T05:11:13.934Z,991.57
2022-08-24T05:12:13.920Z,991.54
2022-08-24T05:13:13.926Z,991.55
2022-08-24T05:14:13.919Z,991.62
2022-08-24T05:15:13.887Z,991.58
2022-08-24T05:16:14.027Z,991.58
2022-08-24T05:17:13.870Z,991.61
2022-08-24T05:18:13.863Z,991.56
2022-08-24T05:19:13.925Z,991.61
2022-08-24T05:20:13.847Z,991.59
2022-08-24T05:21:13.833Z,991.62
2022-08-24T05:22:13.856Z,991.65
2022-08-24T05:23:13.808Z,991.69
2022-08-24T05:24:13.817Z,991.72
2022-08-24T05:25:14.026Z,991.70
2022-08-24T05:26:13.785Z,991.76
2022-08-24T05:27:14.254Z,991.70
2022-08-24T05:28:13.767Z,991.72
2022-08-24T05:29:13.774Z,991.77
2022-08-24T05:30:13.745Z,991.76
2022-08-24T05:31:13.837Z,991.73
2022-08-24T05:32:13.725Z,991.80
2022-08-24T05:33:13.713Z,991.79
2022-08-24T05:34:13.718Z,991.75
2022-08-24T05:35:13.701Z,991.77
2022-08-24T05:36:13.689Z,991.74
2022-08-24T05:37:13.681Z,991.82
2022-08-24T05:38:13.667Z,991.78
2022-08-24T05:39:13.673Z,991.75
2022-08-24T05:40:13.684Z,991.68
2022-08-24T05:41:13.643Z,991.79
2022-08-24T05:42:13.637Z,991.78
2022-08-24T05:43:13.665Z,991.77
2022-08-24T05:44:13.763Z,991.74
2022-08-24T05:45:13.607Z,991.77
2022-08-24T05:46:13.629Z,991.79
2022-08-24T05:47:13.590Z,991.79
2022-08-24T05:48:13.574Z,991.79
2022-08-24T05:49:13.582Z,991.82
2022-08-24T05:50:13.555Z,991.86
2022-08-24T05:51:13.545Z,991.84
2022-08-24T05:52:13.541Z,991.79
2022-08-24T05:53:13.526Z,991.78
2022-08-24T05:54:13.526Z,991.81
2022-08-24T05:55:13.520Z,991.79
2022-08-24T05:56:13.503Z,991.81
2022-08-24T05:57:13.487Z,991.71
2022-08-24T05:58:18.539Z,991.77
2022-08-24T05:59:14.471Z,991.71
2022-08-24T06:00:13.476Z,991.77
2022-08-24T06:01:13.472Z,991.79
2022-08-24T06:02:13.565Z,991.73
2022-08-24T06:03:14.640Z,991.82
2022-08-24T06:04:13.425Z,991.78
2022-08-24T06:05:13.445Z,991.82
2022-08-24T06:06:13.442Z,991.81
2022-08-24T06:07:13.391Z,991.86
2022-08-24T06:08:13.387Z,991.86
2022-08-24T06:09:13.449Z,991.93
2022-08-24T06:10:35.456Z,991.91
2022-08-24T06:11:14.354Z,991.91
2022-08-24T06:12:13.343Z,991.91
2022-08-24T06:13:13.333Z,991.97
2022-08-24T06:14:13.358Z,991.98
2022-08-24T06:15:13.323Z,991.93
2022-08-24T06:16:21.809Z,991.94
2022-08-24T06:17:14.441Z,991.91
2022-08-24T06:18:13.327Z,991.82
2022-08-24T06:19:13.271Z,991.91
2022-08-24T06:20:13.286Z,991.88
2022-08-24T06:21:13.252Z,991.87
2022-08-24T06:22:13.242Z,991.83
2022-08-24T06:23:13.242Z,991.88
2022-08-24T06:24:13.229Z,991.85
2022-08-24T06:25:13.227Z,991.86
2022-08-24T06:26:15.843Z,991.82
2022-08-24T06:27:13.194Z,991.86
2022-08-24T06:28:13.187Z,991.87
2022-08-24T06:29:13.173Z,991.88
2022-08-24T06:30:13.180Z,991.81
2022-08-24T06:31:13.219Z,991.91
2022-08-24T06:32:13.147Z,991.88
2022-08-24T06:33:13.134Z,991.92
2022-08-24T06:34:13.135Z,991.88
2022-08-24T06:35:13.130Z,991.93
2022-08-24T06:36:13.119Z,991.81
2022-08-24T06:37:13.102Z,991.81
2022-08-24T06:38:13.089Z,991.82
2022-08-24T06:39:13.074Z,991.84
2022-08-24T06:40:13.147Z,991.86
2022-08-24T06:41:13.052Z,991.84
2022-08-24T06:42:13.054Z,991.88
2022-08-24T06:43:13.037Z,991.83
2022-08-24T06:44:13.027Z,991.80
2022-08-24T06:45:13.042Z,991.78
2022-08-24T06:46:13.069Z,991.80
2022-08-24T06:47:13.003Z,991.79
2022-08-24T06:48:12.997Z,991.84
2022-08-24T06:49:12.985Z,991.82
2022-08-24T06:50:12.972Z,991.79
2022-08-24T06:51:12.976Z,991.79
2022-08-24T06:52:12.959Z,991.84
2022-08-24T06:53:12.939Z,991.78
2022-08-24T06:54:12.931Z,991.76
2022-08-24T06:55:12.920Z,991.81
2022-08-24T06:56:12.929Z,991.79
2022-08-24T06:57:12.900Z,991.79
2022-08-24T06:58:12.898Z,991.87
2022-08-24T06:59:12.884Z,991.88
2022-08-24T07:00:12.888Z,991.88
2022-08-24T07:01:12.914Z,991.85
2022-08-24T07:02:12.854Z,991.89
2022-08-24T07:03:12.899Z,991.89
2022-08-24T07:04:12.836Z,991.90
2022-08-24T07:05:12.827Z,991.85
2022-08-24T07:06:12.830Z,991.87
2022-08-24T07:07:12.829Z,991.84
2022-08-24T07:08:12.803Z,991.92
2022-08-24T07:09:12.786Z,991.90
2022-08-24T07:10:12.781Z,991.88
2022-08-24T07:11:12.787Z,991.85
2022-08-24T07:12:12.773Z,991.88
2022-08-24T07:13:12.754Z,991.83
2022-08-24T07:14:12.750Z,991.86
2022-08-24T07:15:16.303Z,991.83
2022-08-24T07:16:12.755Z,991.80
2022-08-24T07:17:12.716Z,991.86
2022-08-24T07:18:12.705Z,991.86
2022-08-24T07:19:12.704Z,991.85
2022-08-24T07:20:12.680Z,991.84
2022-08-24T07:21:12.701Z,991.85
2022-08-24T07:22:12.732Z,991.86
2022-08-24T07:23:12.656Z,991.79
2022-08-24T07:24:12.640Z,991.86
2022-08-24T07:25:12.655Z,991.83
2022-08-24T07:26:21.125Z,991.79
2022-08-24T07:27:13.623Z,991.84
2022-08-24T07:28:12.803Z,991.81
2022-08-24T07:29:30.593Z,991.83
2022-08-24T07:30:26.983Z,991.86
2022-08-24T07:31:13.669Z,991.88
2022-08-24T07:32:12.571Z,991.90
2022-08-24T07:33:12.566Z,991.89
2022-08-24T07:34:12.555Z,991.85
2022-08-24T07:35:12.548Z,991.86
2022-08-24T07:36:12.805Z,991.87
2022-08-24T07:37:13.542Z,991.83
2022-08-24T07:38:12.526Z,991.85
2022-08-24T07:39:12.501Z,991.85
2022-08-24T07:40:12.547Z,991.81
2022-08-24T07:41:38.283Z,991.84
2022-08-24T07:42:17.396Z,991.81
2022-08-24T07:43:13.466Z,991.80
2022-08-24T07:44:12.538Z,991.90
2022-08-24T07:45:12.446Z,991.82
2022-08-24T07:46:12.498Z,991.88
2022-08-24T07:47:37.102Z,991.83
2022-08-24T07:48:14.364Z,991.81
2022-08-24T07:49:29.286Z,991.86
2022-08-24T07:50:13.405Z,991.87
2022-08-24T07:51:12.419Z,991.92
2022-08-24T07:52:12.414Z,991.90
2022-08-24T07:53:15.052Z,991.85
2022-08-24T07:54:13.352Z,991.91
2022-08-24T07:55:12.358Z,991.85
2022-08-24T07:56:12.348Z,991.87
2022-08-24T07:57:12.352Z,991.96
2022-08-24T07:58:12.321Z,991.91
2022-08-24T07:59:13.447Z,991.88
2022-08-24T08:00:12.310Z,991.90
2022-08-24T08:01:12.356Z,991.90
2022-08-24T08:02:12.341Z,991.96
2022-08-24T08:03:12.343Z,991.97
2022-08-24T08:04:12.266Z,991.98
2022-08-24T08:05:12.269Z,991.94
2022-08-24T08:06:16.335Z,991.98
2022-08-24T08:07:12.254Z,992.03
2022-08-24T08:08:12.240Z,991.99
2022-08-24T08:09:12.227Z,991.95
2022-08-24T08:10:12.215Z,992.01
2022-08-24T08:11:12.203Z,991.97
2022-08-24T08:12:12.212Z,992.00
2022-08-24T08:13:12.192Z,992.02
2022-08-24T08:14:12.273Z,992.00
2022-08-24T08:15:12.167Z,992.03
2022-08-24T08:16:12.220Z,991.98
2022-08-24T08:17:12.177Z,991.96
2022-08-24T08:18:12.138Z,991.98
2022-08-24T08:19:12.136Z,991.97
2022-08-24T08:20:12.117Z,991.96
2022-08-24T08:21:14.204Z,991.95
2022-08-24T08:22:12.115Z,991.90
2022-08-24T08:23:12.096Z,991.91
2022-08-24T08:24:12.121Z,991.93
2022-08-24T08:25:12.077Z,991.88
2022-08-24T08:26:12.063Z,991.95
2022-08-24T08:27:12.085Z,991.87
2022-08-24T08:28:25.273Z,991.88
2022-08-24T08:29:13.047Z,991.94
2022-08-24T08:30:12.063Z,991.94
2022-08-24T08:31:12.304Z,991.91
2022-08-24T08:32:12.034Z,991.92
2022-08-24T08:33:12.044Z,991.92
2022-08-24T08:34:11.991Z,991.96
2022-08-24T08:35:11.982Z,991.91
2022-08-24T08:36:12.031Z,991.82
2022-08-24T08:37:11.978Z,991.85
2022-08-24T08:38:11.958Z,991.88
2022-08-24T08:39:11.955Z,991.94
2022-08-24T08:40:11.979Z,991.96
2022-08-24T08:41:11.941Z,991.99
2022-08-24T08:42:11.943Z,991.96
2022-08-24T08:43:11.915Z,991.97
2022-08-24T08:44:11.899Z,991.97
2022-08-24T08:45:11.902Z,992.05
2022-08-24T08:46:11.915Z,991.99
2022-08-24T08:47:11.892Z,992.05
2022-08-24T08:48:11.869Z,992.13
2022-08-24T08:49:11.864Z,992.08
2022-08-24T08:50:11.850Z,992.05
2022-08-24T08:51:12.262Z,992.16
2022-08-24T08:52:11.853Z,992.11
2022-08-24T08:53:11.829Z,992.02
2022-08-24T08:54:11.822Z,992.10
2022-08-24T08:55:11.810Z,992.10
2022-08-24T08:56:11.902Z,992.05
2022-08-24T08:57:12.227Z,992.12
2022-08-24T08:58:11.776Z,992.08
2022-08-24T08:59:11.765Z,992.13
2022-08-24T09:00:15.606Z,992.07
2022-08-24T09:01:11.816Z,992.14
2022-08-24T09:02:11.754Z,992.10
2022-08-24T09:03:11.731Z,992.09
2022-08-24T09:04:15.760Z,992.07
2022-08-24T09:05:12.718Z,992.10
2022-08-24T09:06:11.704Z,992.13
2022-08-24T09:07:11.717Z,992.15
2022-08-24T09:08:11.699Z,992.15
2022-08-24T09:09:11.682Z,992.14
2022-08-24T09:10:11.669Z,992.14
2022-08-24T09:11:11.664Z,992.21
2022-08-24T09:12:11.672Z,992.20
2022-08-24T09:13:11.644Z,992.13
2022-08-24T09:14:11.633Z,992.05
2022-08-24T09:15:11.626Z,992.17
2022-08-24T09:16:11.620Z,992.15
2022-08-24T09:17:13.317Z,992.13
2022-08-24T09:18:11.599Z,992.16
2022-08-24T09:19:11.593Z,992.17
2022-08-24T09:20:11.577Z,992.09
2022-08-24T09:21:11.580Z,992.15
2022-08-24T09:22:11.582Z,992.18
2022-08-24T09:23:11.555Z,992.14
2022-08-24T09:24:11.548Z,992.11
2022-08-24T09:25:11.546Z,992.10
2022-08-24T09:26:14.092Z,992.11
2022-08-24T09:27:11.542Z,992.16
2022-08-24T09:28:11.545Z,992.10
2022-08-24T09:29:11.512Z,992.20
2022-08-24T09:30:11.501Z,992.17
2022-08-24T09:31:11.704Z,992.26
2022-08-24T09:32:13.032Z,992.10
2022-08-24T09:33:11.502Z,992.15
2022-08-24T09:34:11.469Z,992.11
2022-08-24T09:35:11.461Z,992.18
2022-08-24T09:36:12.453Z,992.15
2022-08-24T09:37:11.450Z,992.11
2022-08-24T09:38:11.458Z,992.10
2022-08-24T09:39:11.459Z,992.15
2022-08-24T09:40:11.456Z,992.19
2022-08-24T09:41:11.414Z,992.12
2022-08-24T09:42:11.403Z,992.15
2022-08-24T09:43:11.418Z,992.15
2022-08-24T09:44:11.395Z,992.16
2022-08-24T09:45:11.382Z,992.09
2022-08-24T09:46:11.453Z,992.14
2022-08-24T09:47:11.368Z,992.16
2022-08-24T09:48:16.023Z,992.15
2022-08-24T09:49:14.265Z,992.12
2022-08-24T09:50:11.346Z,992.19
2022-08-24T09:51:11.343Z,992.15
2022-08-24T09:52:11.360Z,992.21
2022-08-24T09:53:11.345Z,992.22
2022-08-24T09:54:11.311Z,992.18
2022-08-24T09:55:11.314Z,992.22
2022-08-24T09:56:11.300Z,992.18
2022-08-24T09:57:13.239Z,992.22
2022-08-24T09:58:11.305Z,992.11
2022-08-24T09:59:11.283Z,992.18
2022-08-24T10:00:11.274Z,992.22
2022-08-24T10:01:11.335Z,992.17
2022-08-24T10:02:11.365Z,992.20
2022-08-24T10:03:11.252Z,992.17
2022-08-24T10:04:11.254Z,992.19
2022-08-24T10:05:11.381Z,992.23
2022-08-24T10:06:11.384Z,992.24
2022-08-24T10:07:11.224Z,992.13
2022-08-24T10:08:11.219Z,992.16
2022-08-24T10:09:11.227Z,992.06
2022-08-24T10:10:11.202Z,992.13
2022-08-24T10:11:11.189Z,992.09
2022-08-24T10:12:11.178Z,992.08
2022-08-24T10:13:11.179Z,992.02
2022-08-24T10:14:11.180Z,992.03
2022-08-24T10:15:11.164Z,992.05
2022-08-24T10:16:11.188Z,992.01
2022-08-24T10:17:11.146Z,992.00
2022-08-24T10:18:11.135Z,992.14
2022-08-24T10:19:11.142Z,992.05
2022-08-24T10:20:11.120Z,992.03
2022-08-24T10:21:11.120Z,992.07
2022-08-24T10:22:11.101Z,992.04
2022-08-24T10:23:11.103Z,991.98
2022-08-24T10:24:11.100Z,992.01
2022-08-24T10:25:11.103Z,991.81
2022-08-24T10:26:11.075Z,991.76
2022-08-24T10:27:11.066Z,991.78
2022-08-24T10:28:11.056Z,991.66
2022-08-24T10:29:11.067Z,991.64
2022-08-24T10:30:11.043Z,991.68
2022-08-24T10:31:13.058Z,991.69
2022-08-24T10:32:11.121Z,991.60
2022-08-24T10:33:11.021Z,991.59
2022-08-24T10:34:11.029Z,991.60
2022-08-24T10:35:11.005Z,991.61
2022-08-24T10:36:10.994Z,991.54
2022-08-24T10:37:10.987Z,991.53
2022-08-24T10:38:10.982Z,991.51
2022-08-24T10:39:10.983Z,991.44
2022-08-24T10:40:10.994Z,991.54
2022-08-24T10:41:10.960Z,991.52
2022-08-24T10:42:10.940Z,991.48
2022-08-24T10:43:10.939Z,991.44
2022-08-24T10:44:10.946Z,991.48
2022-08-24T10:45:10.919Z,991.42
2022-08-24T10:46:10.980Z,991.45
2022-08-24T10:47:10.902Z,991.38
2022-08-24T10:48:10.892Z,991.36
2022-08-24T10:49:10.906Z,991.39
2022-08-24T10:50:10.873Z,991.37
2022-08-24T10:51:10.864Z,991.35
2022-08-24T10:52:10.859Z,991.40
2022-08-24T10:53:10.848Z,991.30
2022-08-24T10:54:10.856Z,991.30
2022-08-24T10:55:10.828Z,991.32
2022-08-24T10:56:10.822Z,991.31
2022-08-24T10:57:12.507Z,991.25
2022-08-24T10:58:10.801Z,991.26
2022-08-24T10:59:10.820Z,991.31
2022-08-24T11:00:10.787Z,991.30
2022-08-24T11:01:11.793Z,991.19
2022-08-24T11:02:12.699Z,991.15
2022-08-24T11:03:10.763Z,991.21
2022-08-24T11:04:10.744Z,991.20
2022-08-24T11:05:10.833Z,991.18
2022-08-24T11:06:10.754Z,991.23
2022-08-24T11:07:10.740Z,991.17
2022-08-24T11:08:10.716Z,991.25
2022-08-24T11:09:10.701Z,991.21
2022-08-24T11:10:10.706Z,991.23
2022-08-24T11:11:10.708Z,991.14
2022-08-24T11:12:10.670Z,991.22
2022-08-24T11:13:10.668Z,991.20
2022-08-24T11:14:10.656Z,991.23
2022-08-24T11:15:10.755Z,991.11
2022-08-24T11:16:10.673Z,991.19
2022-08-24T11:17:10.633Z,991.20
2022-08-24T11:18:10.624Z,991.24
2022-08-24T11:19:10.620Z,991.18
2022-08-24T11:20:10.615Z,991.22
2022-08-24T11:21:10.601Z,991.21
2022-08-24T11:22:10.584Z,991.19
2022-08-24T11:23:10.578Z,991.17
2022-08-24T11:24:10.581Z,991.11
2022-08-24T11:25:10.577Z,991.20
2022-08-24T11:26:10.547Z,991.18
2022-08-24T11:27:10.542Z,991.25
2022-08-24T11:28:10.535Z,991.14
2022-08-24T11:29:10.522Z,991.11
2022-08-24T11:30:10.526Z,991.17
2022-08-24T11:31:10.540Z,991.08
2022-08-24T11:32:10.498Z,991.11
2022-08-24T11:33:10.489Z,991.01
2022-08-24T11:34:10.487Z,991.08
2022-08-24T11:35:10.489Z,991.03
2022-08-24T11:36:10.471Z,991.06
2022-08-24T11:37:10.503Z,991.05
2022-08-24T11:38:10.449Z,991.04
2022-08-24T11:39:10.441Z,991.03
2022-08-24T11:40:10.463Z,991.01
2022-08-24T11:41:10.416Z,991.03
2022-08-24T11:42:10.415Z,991.06
2022-08-24T11:43:10.404Z,991.08
2022-08-24T11:44:10.392Z,991.06
2022-08-24T11:45:10.394Z,991.12
2022-08-24T11:46:10.377Z,991.08
2022-08-24T11:47:10.361Z,991.04
2022-08-24T11:48:12.400Z,991.09
2022-08-24T11:49:10.347Z,991.16
2022-08-24T11:50:10.577Z,991.09
2022-08-24T11:51:10.329Z,991.14
2022-08-24T11:52:10.316Z,991.13
2022-08-24T11:53:12.171Z,991.15
2022-08-24T11:54:10.307Z,991.07
2022-08-24T11:55:10.307Z,991.12
2022-08-24T11:56:10.283Z,991.14
2022-08-24T11:57:10.287Z,991.03
2022-08-24T11:58:10.269Z,991.03
2022-08-24T11:59:10.270Z,991.08
2022-08-24T12:00:10.326Z,991.04
2022-08-24T12:01:10.241Z,991.03
2022-08-24T12:02:10.311Z,991.08
2022-08-24T12:03:10.311Z,990.99
2022-08-24T12:04:10.215Z,990.99
2022-08-24T12:05:10.234Z,990.94
2022-08-24T12:06:10.206Z,990.93
2022-08-24T12:07:10.197Z,990.93
2022-08-24T12:08:10.180Z,990.88
2022-08-24T12:09:10.168Z,990.97
2022-08-24T12:10:10.441Z,990.97
2022-08-24T12:11:10.150Z,990.92
2022-08-24T12:12:10.142Z,990.93
2022-08-24T12:13:10.155Z,990.93
2022-08-24T12:14:10.137Z,990.92
2022-08-24T12:15:10.134Z,990.93
2022-08-24T12:16:10.197Z,990.84
2022-08-24T12:17:10.094Z,990.87
2022-08-24T12:18:10.093Z,990.83
2022-08-24T12:19:10.096Z,990.86
2022-08-24T12:20:10.136Z,990.93
2022-08-24T12:21:12.771Z,990.88
2022-08-24T12:22:10.095Z,990.85
2022-08-24T12:23:10.043Z,990.88
2022-08-24T12:24:10.047Z,990.88
2022-08-24T12:25:10.038Z,990.80
2022-08-24T12:26:10.027Z,990.84
2022-08-24T12:27:10.007Z,990.81
2022-08-24T12:28:10.002Z,990.79